createdAt,value
2023-05-11T00:00:44.986Z,11.20
2023-05-11T00:03:13.157Z,11.30
2023-05-11T00:05:51.231Z,11.30
2023-05-11T00:08:20.046Z,11.30
2023-05-11T00:10:48.977Z,11.40
2023-05-11T00:13:18.978Z,11.30
2023-05-11T00:15:47.566Z,11.30
2023-05-11T00:18:15.828Z,11.40
2023-05-11T00:20:43.802Z,11.40
2023-05-11T00:23:11.757Z,11.40
2023-05-11T00:25:39.956Z,11.40
2023-05-11T00:28:07.961Z,11.40
2023-05-11T00:30:37.297Z,11.40
2023-05-11T00:33:05.780Z,11.40
2023-05-11T00:35:33.994Z,11.40
2023-05-11T00:38:01.964Z,11.40
2023-05-11T00:40:52.598Z,11.40
2023-05-11T00:43:20.536Z,11.50
2023-05-11T00:45:52.269Z,11.40
2023-05-11T00:48:30.385Z,11.40
2023-05-11T00:51:00.528Z,11.40
2023-05-11T00:53:28.781Z,11.50
2023-05-11T00:55:57.663Z,11.50
2023-05-11T00:58:26.716Z,11.50
2023-05-11T01:01:14.088Z,11.40
2023-05-11T01:03:42.173Z,11.50
2023-05-11T01:06:17.390Z,11.50
2023-05-11T01:08:49.314Z,11.50
2023-05-11T01:11:23.139Z,11.50
2023-05-11T01:13:54.490Z,11.50
2023-05-11T01:16:25.896Z,11.50
2023-05-11T01:18:59.140Z,11.50
2023-05-11T01:21:31.472Z,11.60
2023-05-11T01:24:21.329Z,11.60
2023-05-11T01:27:07.554Z,11.60
2023-05-11T01:30:08.143Z,11.50
2023-05-11T01:32:41.788Z,11.40
2023-05-11T01:35:13.256Z,11.40
2023-05-11T01:37:45.278Z,11.40
2023-05-11T01:40:19.085Z,11.50
2023-05-11T01:42:57.520Z,11.50
2023-05-11T01:45:27.108Z,11.40
2023-05-11T01:47:58.434Z,11.50
2023-05-11T01:50:28.732Z,11.40
2023-05-11T01:52:56.846Z,11.40
2023-05-11T01:55:26.416Z,11.50
2023-05-11T01:58:03.212Z,11.40
2023-05-11T02:00:32.301Z,11.30
2023-05-11T02:03:05.681Z,11.30
2023-05-11T02:05:35.876Z,11.30
2023-05-11T02:08:06.573Z,11.30
2023-05-11T02:10:35.345Z,11.30
2023-05-11T02:13:05.249Z,11.30
2023-05-11T02:15:35.144Z,11.30
2023-05-11T02:18:05.832Z,11.20
2023-05-11T02:20:35.931Z,11.10
2023-05-11T02:23:04.645Z,11.00
2023-05-11T02:25:33.210Z,11.00
2023-05-11T02:28:01.249Z,10.90
2023-05-11T02:30:32.672Z,10.80
2023-05-11T02:33:05.982Z,10.70
2023-05-11T02:35:39.430Z,10.70
2023-05-11T02:38:10.099Z,10.60
2023-05-11T02:40:48.498Z,10.60
2023-05-11T02:43:23.222Z,10.60
2023-05-11T02:46:03.633Z,10.60
2023-05-11T02:48:47.456Z,10.60
2023-05-11T02:51:18.107Z,10.60
2023-05-11T02:53:47.995Z,10.60
2023-05-11T02:56:16.681Z,10.60
2023-05-11T02:58:45.184Z,10.60
2023-05-11T03:01:14.450Z,10.50
2023-05-11T03:03:44.154Z,10.50
2023-05-11T03:06:12.560Z,10.50
2023-05-11T03:08:41.860Z,10.50
2023-05-11T03:11:10.907Z,10.50
2023-05-11T03:13:39.544Z,10.40
2023-05-11T03:16:08.836Z,10.40
2023-05-11T03:18:37.913Z,10.40
2023-05-11T03:21:08.600Z,10.50
2023-05-11T03:23:37.702Z,10.40
2023-05-11T03:26:07.412Z,10.40
2023-05-11T03:28:37.618Z,10.40
2023-05-11T03:31:05.861Z,10.40
2023-05-11T03:33:34.012Z,10.50
2023-05-11T03:36:03.858Z,10.50
2023-05-11T03:38:35.994Z,10.50
2023-05-11T03:41:04.074Z,10.50
2023-05-11T03:43:35.665Z,10.40
2023-05-11T03:46:05.020Z,10.50
2023-05-11T03:48:33.306Z,10.50
2023-05-11T03:51:13.031Z,10.50
2023-05-11T03:53:42.715Z,10.50
2023-05-11T03:56:11.310Z,10.50
2023-05-11T03:58:40.677Z,10.50
2023-05-11T04:01:09.896Z,10.50
2023-05-11T04:03:48.615Z,10.50
2023-05-11T04:06:19.983Z,10.60
2023-05-11T04:08:49.560Z,10.60
2023-05-11T04:11:17.774Z,10.60
2023-05-11T04:13:45.752Z,10.60
2023-05-11T04:16:13.761Z,10.60
2023-05-11T04:18:48.395Z,10.60
2023-05-11T04:21:16.544Z,10.60
2023-05-11T04:23:44.497Z,10.50
2023-05-11T04:26:13.992Z,10.50
2023-05-11T04:28:41.934Z,10.50
2023-05-11T04:31:10.510Z,10.50
2023-05-11T04:33:38.524Z,10.50
2023-05-11T04:36:07.187Z,10.50
2023-05-11T04:38:35.181Z,10.50
2023-05-11T04:41:04.911Z,10.50
2023-05-11T04:43:34.330Z,10.50
2023-05-11T04:46:02.335Z,10.50
2023-05-11T04:48:30.324Z,10.50
2023-05-11T04:50:58.461Z,10.50
2023-05-11T04:53:26.528Z,10.50
2023-05-11T04:55:55.638Z,10.50
2023-05-11T04:58:28.124Z,10.50
2023-05-11T05:01:01.669Z,10.60
2023-05-11T05:03:40.731Z,10.60
2023-05-11T05:06:08.804Z,10.60
2023-05-11T05:08:36.784Z,10.60
2023-05-11T05:11:05.841Z,10.60
2023-05-11T05:13:33.945Z,10.70
2023-05-11T05:16:03.433Z,10.70
2023-05-11T05:18:31.426Z,10.70
2023-05-11T05:20:59.399Z,10.80
2023-05-11T05:23:35.237Z,10.80
2023-05-11T05:26:03.283Z,10.90
2023-05-11T05:28:36.371Z,10.90
2023-05-11T05:31:06.302Z,10.90
2023-05-11T05:33:34.355Z,11.00
2023-05-11T05:36:02.326Z,10.90
2023-05-11T05:38:30.402Z,11.00
2023-05-11T05:40:58.516Z,11.10
2023-05-11T05:43:26.480Z,11.10
2023-05-11T05:45:54.494Z,11.10
2023-05-11T05:48:23.836Z,11.20
2023-05-11T05:50:51.864Z,11.20
2023-05-11T05:53:20.091Z,11.20
2023-05-11T05:56:07.219Z,11.20
2023-05-11T05:58:35.231Z,11.20
2023-05-11T06:01:03.192Z,11.30
2023-05-11T06:03:40.148Z,11.20
2023-05-11T06:06:08.932Z,11.20
2023-05-11T06:08:36.907Z,11.30
2023-05-11T06:11:04.912Z,11.30
2023-05-11T06:13:33.147Z,11.30
2023-05-11T06:16:02.066Z,11.30
2023-05-11T06:18:37.380Z,11.40
2023-05-11T06:21:06.802Z,11.40
2023-05-11T06:23:34.785Z,11.50
2023-05-11T06:26:02.921Z,11.60
2023-05-11T06:28:31.086Z,11.60
2023-05-11T06:30:59.318Z,11.70
2023-05-11T06:33:29.320Z,11.70
2023-05-11T06:35:57.335Z,11.80
2023-05-11T06:38:28.456Z,11.80
2023-05-11T06:40:56.610Z,11.70
2023-05-11T06:43:24.571Z,11.70
2023-05-11T06:45:52.779Z,11.70
2023-05-11T06:48:23.342Z,11.80
2023-05-11T06:50:51.384Z,11.90
2023-05-11T06:53:19.400Z,11.90
2023-05-11T06:55:49.205Z,11.90
2023-05-11T06:58:20.352Z,12.20
2023-05-11T07:00:49.035Z,12.10
2023-05-11T07:03:17.031Z,12.00
2023-05-11T07:05:50.805Z,12.00
2023-05-11T07:08:18.849Z,12.00
2023-05-11T07:10:48.190Z,12.00
2023-05-11T07:13:16.152Z,12.00
2023-05-11T07:15:44.102Z,11.80
2023-05-11T07:18:12.288Z,11.70
2023-05-11T07:20:40.966Z,11.80
2023-05-11T07:23:10.001Z,11.90
2023-05-11T07:25:38.045Z,12.00
2023-05-11T07:28:07.419Z,12.00
2023-05-11T07:30:35.393Z,12.00
2023-05-11T07:33:04.074Z,12.10
2023-05-11T07:35:33.215Z,12.10
2023-05-11T07:38:01.341Z,12.20
2023-05-11T07:40:29.408Z,12.20
2023-05-11T07:42:57.377Z,12.30
2023-05-11T07:45:27.030Z,12.50
2023-05-11T07:47:55.020Z,12.70
2023-05-11T07:50:24.397Z,12.80
2023-05-11T07:52:52.857Z,12.80
2023-05-11T07:55:26.761Z,13.00
2023-05-11T07:57:55.426Z,12.90
2023-05-11T08:00:31.904Z,12.90
2023-05-11T08:03:00.091Z,12.90
2023-05-11T08:05:28.327Z,13.00
2023-05-11T08:07:56.345Z,12.70
2023-05-11T08:10:24.318Z,12.70
2023-05-11T08:12:53.327Z,12.70
2023-05-11T08:15:21.515Z,12.60
2023-05-11T08:17:51.070Z,12.60
2023-05-11T08:20:28.597Z,12.50
2023-05-11T08:22:56.585Z,12.50
2023-05-11T08:25:24.767Z,12.60
2023-05-11T08:27:52.732Z,12.70
2023-05-11T08:30:20.866Z,12.80
2023-05-11T08:32:58.044Z,12.80
2023-05-11T08:35:28.019Z,12.80
2023-05-11T08:37:56.020Z,12.70
2023-05-11T08:40:27.663Z,12.80
2023-05-11T08:42:57.220Z,12.70
2023-05-11T08:45:27.301Z,13.10
2023-05-11T08:48:00.681Z,13.10
2023-05-11T08:50:28.699Z,13.30
2023-05-11T08:52:56.676Z,13.40
2023-05-11T08:55:26.165Z,13.70
2023-05-11T08:57:57.541Z,14.00
2023-05-11T09:00:26.821Z,14.20
2023-05-11T09:02:55.931Z,14.20
2023-05-11T09:05:28.006Z,14.40
2023-05-11T09:08:02.015Z,14.40
2023-05-11T09:10:30.055Z,14.70
2023-05-11T09:12:58.056Z,14.70
2023-05-11T09:15:27.047Z,14.80
2023-05-11T09:17:55.057Z,14.70
2023-05-11T09:20:29.644Z,14.80
2023-05-11T09:22:58.304Z,15.00
2023-05-11T09:25:27.293Z,15.30
2023-05-11T09:27:55.400Z,15.50
2023-05-11T09:30:24.916Z,15.70
2023-05-11T09:32:55.300Z,15.80
2023-05-11T09:35:25.324Z,15.20
2023-05-11T09:38:06.579Z,15.50
2023-05-11T09:40:52.250Z,15.70
2023-05-11T09:43:22.017Z,15.70
2023-05-11T09:45:57.012Z,15.60
2023-05-11T09:48:30.223Z,16.40
2023-05-11T09:51:04.048Z,17.20
2023-05-11T09:53:45.783Z,17.30
2023-05-11T09:56:24.072Z,17.20
2023-05-11T09:58:54.335Z,16.60
2023-05-11T10:01:35.235Z,16.60
2023-05-11T10:04:13.911Z,16.00
2023-05-11T10:06:50.924Z,15.40
2023-05-11T10:09:24.264Z,15.10
2023-05-11T10:11:56.305Z,14.40
2023-05-11T10:14:25.830Z,14.10
2023-05-11T10:16:54.880Z,14.10
2023-05-11T10:19:23.918Z,14.10
2023-05-11T10:21:53.107Z,13.90
2023-05-11T10:24:24.997Z,13.90
2023-05-11T10:26:54.017Z,13.70
2023-05-11T10:29:23.614Z,13.50
2023-05-11T10:32:00.216Z,13.60
2023-05-11T10:34:29.611Z,13.70
2023-05-11T10:37:01.037Z,14.10
2023-05-11T10:39:31.695Z,14.50
2023-05-11T10:42:16.912Z,14.80
2023-05-11T10:45:09.701Z,15.10
2023-05-11T10:48:29.400Z,15.20
2023-05-11T10:51:23.727Z,15.40
2023-05-11T10:54:05.428Z,15.90
2023-05-11T10:56:58.075Z,16.20
2023-05-11T10:59:55.808Z,16.40
2023-05-11T11:02:24.449Z,16.20
2023-05-11T11:04:53.138Z,16.20
2023-05-11T11:07:21.598Z,15.80
2023-05-11T11:09:56.129Z,15.80
2023-05-11T11:12:27.297Z,16.00
2023-05-11T11:14:57.530Z,15.90
2023-05-11T11:17:29.073Z,15.50
2023-05-11T11:19:57.422Z,14.50
2023-05-11T11:22:44.701Z,13.80
2023-05-11T11:25:13.702Z,13.40
2023-05-11T11:28:00.060Z,13.30
2023-05-11T11:30:30.514Z,13.10
2023-05-11T11:33:33.540Z,13.30
2023-05-11T11:36:01.653Z,13.50
2023-05-11T11:38:32.360Z,13.70
2023-05-11T11:41:09.992Z,13.90
2023-05-11T11:43:47.102Z,14.00
2023-05-11T11:46:28.094Z,14.10
2023-05-11T11:49:09.067Z,14.50
2023-05-11T11:51:40.161Z,14.90
2023-05-11T11:54:09.076Z,15.40
2023-05-11T11:56:45.436Z,15.50
2023-05-11T11:59:16.250Z,15.60
2023-05-11T12:01:46.523Z,15.20
2023-05-11T12:04:43.246Z,14.70
2023-05-11T12:07:12.037Z,14.70
2023-05-11T12:09:42.053Z,14.50
2023-05-11T12:12:11.819Z,14.40
2023-05-11T12:14:48.829Z,14.30
2023-05-11T12:17:24.846Z,14.30
2023-05-11T12:19:52.976Z,14.30
2023-05-11T12:22:24.789Z,14.20
2023-05-11T12:24:58.817Z,14.30
2023-05-11T12:27:28.187Z,14.30
2023-05-11T12:29:58.590Z,14.10
2023-05-11T12:32:28.343Z,14.00
2023-05-11T12:35:01.139Z,13.90
2023-05-11T12:37:30.557Z,13.50
2023-05-11T12:40:03.476Z,12.80
2023-05-11T12:42:35.215Z,12.20
2023-05-11T12:45:06.121Z,11.80
2023-05-11T12:47:34.374Z,11.50
2023-05-11T12:50:03.541Z,11.40
2023-05-11T12:52:31.678Z,11.30
2023-05-11T12:55:01.643Z,11.30
2023-05-11T12:57:31.009Z,11.30
2023-05-11T13:00:12.309Z,11.40
2023-05-11T13:02:50.887Z,11.20
2023-05-11T13:05:22.150Z,11.30
2023-05-11T13:07:59.556Z,11.30
2023-05-11T13:10:28.458Z,11.20
2023-05-11T13:12:57.224Z,11.10
2023-05-11T13:15:28.579Z,11.10
2023-05-11T13:17:58.418Z,11.10
2023-05-11T13:20:28.628Z,11.00
2023-05-11T13:23:10.742Z,11.20
2023-05-11T13:25:54.416Z,11.10
2023-05-11T13:28:25.163Z,11.30
2023-05-11T13:31:01.499Z,11.30
2023-05-11T13:33:29.621Z,11.50
2023-05-11T13:35:57.623Z,11.40
2023-05-11T13:38:25.585Z,11.40
2023-05-11T13:40:53.571Z,11.40
2023-05-11T13:43:21.588Z,11.60
2023-05-11T13:45:49.594Z,11.70
2023-05-11T13:48:19.043Z,11.70
2023-05-11T13:50:47.209Z,11.70
2023-05-11T13:53:15.198Z,11.90
2023-05-11T13:55:43.459Z,12.00
2023-05-11T13:58:11.495Z,12.10
2023-05-11T14:00:40.136Z,12.20
2023-05-11T14:03:08.530Z,12.20
2023-05-11T14:05:39.347Z,12.30
2023-05-11T14:08:07.508Z,12.40
2023-05-11T14:10:50.870Z,12.50
2023-05-11T14:13:19.052Z,12.50
2023-05-11T14:15:47.074Z,12.50
2023-05-11T14:18:15.178Z,12.70
2023-05-11T14:20:44.715Z,12.70
2023-05-11T14:23:12.685Z,12.80
2023-05-11T14:25:40.718Z,12.70
2023-05-11T14:28:08.719Z,12.80
2023-05-11T14:30:36.893Z,13.00
2023-05-11T14:33:05.036Z,13.00
2023-05-11T14:35:33.044Z,13.10
2023-05-11T14:38:04.506Z,13.10
2023-05-11T14:40:32.583Z,13.20
2023-05-11T14:43:01.409Z,13.30
2023-05-11T14:45:29.549Z,13.40
2023-05-11T14:47:57.600Z,13.20
2023-05-11T14:50:25.646Z,12.90
2023-05-11T14:52:53.718Z,13.00
2023-05-11T14:55:23.139Z,13.30
2023-05-11T14:58:04.014Z,13.30
2023-05-11T15:00:40.338Z,13.20
2023-05-11T15:03:10.583Z,13.20
2023-05-11T15:05:46.737Z,13.20
2023-05-11T15:08:28.405Z,13.20
2023-05-11T15:11:00.483Z,13.20
2023-05-11T15:13:28.790Z,13.30
2023-05-11T15:15:57.812Z,13.20
2023-05-11T15:18:25.881Z,13.10
2023-05-11T15:20:53.928Z,13.00
2023-05-11T15:23:21.923Z,13.20
2023-05-11T15:25:49.980Z,13.10
2023-05-11T15:28:19.583Z,13.10
2023-05-11T15:30:48.821Z,13.20
2023-05-11T15:33:17.089Z,13.20
2023-05-11T15:35:45.215Z,13.30
2023-05-11T15:38:14.558Z,13.50
2023-05-11T15:40:42.522Z,13.40
2023-05-11T15:43:10.513Z,13.30
2023-05-11T15:45:39.872Z,13.30
2023-05-11T15:48:08.024Z,13.20
2023-05-11T15:50:36.448Z,13.10
2023-05-11T15:53:06.417Z,13.00
2023-05-11T15:55:37.015Z,12.80
2023-05-11T15:58:08.281Z,12.80
2023-05-11T16:00:36.279Z,12.80
2023-05-11T16:03:07.116Z,12.90
2023-05-11T16:05:36.205Z,12.90
2023-05-11T16:08:04.268Z,13.10
2023-05-11T16:10:34.465Z,13.00
2023-05-11T16:13:02.519Z,12.80
2023-05-11T16:15:31.217Z,12.90
2023-05-11T16:18:00.076Z,12.90
2023-05-11T16:20:31.743Z,12.80
2023-05-11T16:22:59.790Z,12.90
2023-05-11T16:25:27.973Z,12.80
2023-05-11T16:27:59.643Z,12.70
2023-05-11T16:30:27.895Z,12.70
2023-05-11T16:32:56.103Z,12.60
2023-05-11T16:35:24.422Z,12.60
2023-05-11T16:37:56.535Z,12.60
2023-05-11T16:40:26.958Z,12.70
2023-05-11T16:42:54.964Z,12.90
2023-05-11T16:45:22.959Z,12.80
2023-05-11T16:47:50.981Z,12.80
2023-05-11T16:50:20.247Z,12.80
2023-05-11T16:52:48.682Z,12.90
2023-05-11T16:55:19.416Z,12.80
2023-05-11T16:57:48.233Z,12.80
2023-05-11T17:00:24.395Z,12.90
2023-05-11T17:03:09.466Z,12.80
2023-05-11T17:05:37.665Z,12.70
2023-05-11T17:08:05.685Z,12.60
2023-05-11T17:10:50.122Z,12.60
2023-05-11T17:13:18.626Z,12.60
2023-05-11T17:15:47.136Z,12.60
2023-05-11T17:18:15.185Z,12.50
2023-05-11T17:20:43.439Z,12.40
2023-05-11T17:23:11.475Z,12.40
2023-05-11T17:25:44.051Z,12.40
2023-05-11T17:28:13.793Z,12.40
2023-05-11T17:33:16.513Z,12.50
2023-05-11T17:35:44.846Z,12.40
2023-05-11T17:38:12.977Z,12.30
2023-05-11T17:40:47.749Z,12.30
2023-05-11T17:43:18.286Z,12.20
2023-05-11T17:45:46.703Z,12.30
2023-05-11T17:48:33.522Z,12.30
2023-05-11T17:51:09.363Z,12.30
2023-05-11T17:53:41.120Z,12.20
2023-05-11T17:56:11.788Z,12.20
2023-05-11T17:58:43.111Z,12.10
2023-05-11T18:01:14.729Z,12.10
2023-05-11T18:03:46.942Z,12.10
2023-05-11T18:06:16.419Z,12.10
2023-05-11T18:08:44.994Z,12.00
2023-05-11T18:11:13.912Z,11.90
2023-05-11T18:13:43.445Z,11.90
2023-05-11T18:16:11.624Z,11.80
2023-05-11T18:18:42.286Z,11.60
2023-05-11T18:21:10.934Z,11.60
2023-05-11T18:23:39.185Z,11.50
2023-05-11T18:26:08.233Z,11.40
2023-05-11T18:28:36.313Z,11.40
2023-05-11T18:31:05.752Z,11.30
2023-05-11T18:33:33.791Z,11.40
2023-05-11T18:36:03.299Z,11.40
2023-05-11T18:38:35.199Z,11.20
2023-05-11T18:41:05.941Z,11.20
2023-05-11T18:43:34.354Z,11.20
2023-05-11T18:46:11.070Z,11.30
2023-05-11T18:48:39.918Z,11.30
2023-05-11T18:51:08.080Z,11.30
2023-05-11T18:53:36.189Z,11.30
2023-05-11T18:56:04.301Z,11.30
2023-05-11T18:58:32.428Z,11.20
2023-05-11T19:01:00.606Z,11.30
2023-05-11T19:03:31.793Z,11.20
2023-05-11T19:06:01.707Z,11.20
2023-05-11T19:08:29.868Z,11.20
2023-05-11T19:10:57.915Z,11.20
2023-05-11T19:13:26.386Z,11.10
2023-05-11T19:15:54.386Z,11.20
2023-05-11T19:18:22.596Z,11.20
2023-05-11T19:20:53.974Z,11.20
2023-05-11T19:23:22.053Z,11.20
2023-05-11T19:25:50.286Z,11.20
2023-05-11T19:28:18.696Z,11.20
2023-05-11T19:30:48.701Z,11.00
2023-05-11T19:33:16.779Z,11.00
2023-05-11T19:35:44.889Z,10.90
2023-05-11T19:38:14.559Z,11.00
2023-05-11T19:40:46.246Z,10.90
2023-05-11T19:43:14.827Z,10.90
2023-05-11T19:45:44.155Z,11.00
2023-05-11T19:48:13.669Z,10.90
2023-05-11T19:50:42.293Z,10.90
2023-05-11T19:53:10.399Z,11.10
2023-05-11T19:55:40.238Z,11.10
2023-05-11T19:58:08.366Z,11.10
2023-05-11T20:00:36.978Z,11.10
2023-05-11T20:03:05.199Z,11.10
2023-05-11T20:05:33.399Z,11.00
2023-05-11T20:08:01.512Z,11.00
2023-05-11T20:10:29.615Z,11.00
2023-05-11T20:13:00.041Z,11.00
2023-05-11T20:15:28.676Z,10.90
2023-05-11T20:17:56.652Z,11.00
2023-05-11T20:20:25.090Z,11.00
2023-05-11T20:22:53.130Z,11.00
2023-05-11T20:25:21.578Z,11.00
2023-05-11T20:27:49.658Z,11.10
2023-05-11T20:30:20.350Z,11.10
2023-05-11T20:35:19.643Z,11.10
2023-05-11T20:37:47.894Z,11.10
2023-05-11T20:40:17.459Z,11.10
2023-05-11T20:42:45.638Z,11.10
2023-05-11T20:45:13.700Z,11.10
2023-05-11T20:47:48.965Z,11.20
2023-05-11T20:50:17.076Z,11.20
2023-05-11T20:52:45.199Z,11.20
2023-05-11T20:55:13.283Z,11.20
2023-05-11T20:57:41.231Z,11.20
2023-05-11T21:00:11.252Z,11.10
2023-05-11T21:02:39.386Z,11.10
2023-05-11T21:05:09.429Z,11.10
2023-05-11T21:07:45.573Z,11.10
2023-05-11T21:10:14.030Z,11.20
2023-05-11T21:12:47.866Z,11.10
2023-05-11T21:15:16.044Z,11.10
2023-05-11T21:17:51.105Z,11.00
2023-05-11T21:20:20.864Z,11.00
2023-05-11T21:22:50.227Z,11.00
2023-05-11T21:25:20.312Z,11.00
2023-05-11T21:27:48.268Z,11.00
2023-05-11T21:30:16.372Z,10.90
2023-05-11T21:32:44.468Z,10.80
2023-05-11T21:35:14.934Z,10.80
2023-05-11T21:37:45.394Z,10.70
2023-05-11T21:40:17.421Z,10.60
2023-05-11T21:42:46.283Z,10.60
2023-05-11T21:45:16.399Z,10.60
2023-05-11T21:47:46.645Z,10.60
2023-05-11T21:50:15.895Z,10.70
2023-05-11T21:52:45.439Z,10.70
2023-05-11T21:55:13.550Z,10.70
2023-05-11T21:57:44.264Z,10.70
2023-05-11T22:00:18.795Z,10.70
2023-05-11T22:02:47.350Z,10.70
2023-05-11T22:05:15.810Z,10.60
2023-05-11T22:07:45.738Z,10.60
2023-05-11T22:10:13.953Z,10.60
2023-05-11T22:12:42.028Z,10.60
2023-05-11T22:15:11.318Z,10.60
2023-05-11T22:17:39.501Z,10.60
2023-05-11T22:20:09.924Z,10.60
2023-05-11T22:22:46.315Z,10.60
2023-05-11T22:25:14.440Z,10.60
2023-05-11T22:27:42.418Z,10.60
2023-05-11T22:30:11.440Z,10.50
2023-05-11T22:32:39.484Z,10.60
2023-05-11T22:35:08.502Z,10.60
2023-05-11T22:37:36.497Z,10.60
2023-05-11T22:40:14.316Z,10.60
2023-05-11T22:42:42.329Z,10.60
2023-05-11T22:45:11.703Z,10.70
2023-05-11T22:47:40.063Z,10.70
2023-05-11T22:50:11.866Z,10.70
2023-05-11T22:52:40.065Z,10.60
2023-05-11T22:55:09.109Z,10.60
2023-05-11T22:57:47.874Z,10.50
2023-05-11T23:00:16.269Z,10.50
2023-05-11T23:02:44.359Z,10.50
2023-05-11T23:05:12.427Z,10.50
2023-05-11T23:07:40.397Z,10.50
2023-05-11T23:10:08.870Z,10.50
2023-05-11T23:12:36.855Z,10.50
2023-05-11T23:15:07.585Z,10.30
2023-05-11T23:17:35.728Z,10.30
2023-05-11T23:20:04.378Z,10.40
2023-05-11T23:22:32.451Z,10.30
2023-05-11T23:25:01.196Z,10.40
2023-05-11T23:27:30.210Z,10.40
2023-05-11T23:29:58.180Z,10.30
2023-05-11T23:32:27.873Z,10.40
2023-05-11T23:34:55.889Z,10.40
2023-05-11T23:37:23.851Z,10.40
2023-05-11T23:39:51.826Z,10.30
2023-05-11T23:42:19.886Z,10.30
2023-05-11T23:44:47.875Z,10.30
2023-05-11T23:47:15.918Z,10.20
2023-05-11T23:49:45.384Z,10.20
2023-05-11T23:52:13.397Z,10.20
2023-05-11T23:54:41.406Z,10.20
2023-05-11T23:57:09.386Z,10.30
2023-05-11T23:59:37.327Z,10.20
